Time;durP1;ratioP1;P1;durP2;ratioP2;P2;SDS_P1;SDS_P2;PMS_P1;PMS_P2;Temp;Humidity;BMP_temperature;BMP_pressure;BME280_temperature;BME280_humidity;BME280_pressure;Samples;Min_cycle;Max_cycle;Signal;HPM_P1;HPM_P2
2023/04/20 00:00:18;;;;;;;3.90;3.17;;;;;;;;;;5115130;28;20199;-77
2023/04/20 00:02:44;;;;;;;4.03;3.00;;;;;;;;;;5115010;28;20322;-77
2023/04/20 00:05:12;;;;;;;4.13;3.33;;;;;;;;;;5115153;28;20203;-77
2023/04/20 00:07:40;;;;;;;4.93;3.20;;;;;;;;;;5114838;28;20661;-77
2023/04/20 00:10:06;;;;;;;4.40;3.03;;;;;;;;;;5114318;28;20227;-76
2023/04/20 00:12:33;;;;;;;5.00;3.07;;;;;;;;;;5114846;28;20246;-77
2023/04/20 00:14:59;;;;;;;3.27;2.97;;;;;;;;;;5114806;28;20199;-77
2023/04/20 00:17:25;;;;;;;3.50;2.77;;;;;;;;;;5114445;28;20569;-77
2023/04/20 00:19:52;;;;;;;5.20;3.17;;;;;;;;;;5114787;28;20184;-77
2023/04/20 00:22:18;;;;;;;3.00;2.70;;;;;;;;;;5114740;28;20225;-77
2023/04/20 00:24:44;;;;;;;3.70;3.00;;;;;;;;;;5115321;28;20210;-77
2023/04/20 00:27:11;;;;;;;5.80;3.40;;;;;;;;;;5115221;28;20214;-77
2023/04/20 00:29:37;;;;;;;4.67;2.97;;;;;;;;;;5114542;28;20276;-76
2023/04/20 00:32:03;;;;;;;4.87;3.33;;;;;;;;;;5114592;28;20203;-77
2023/04/20 00:34:30;;;;;;;5.43;3.37;;;;;;;;;;5114644;28;20545;-77
2023/04/20 00:36:56;;;;;;;4.53;2.97;;;;;;;;;;5114574;28;20207;-77
2023/04/20 00:39:23;;;;;;;3.57;3.03;;;;;;;;;;5114523;28;20203;-77
2023/04/20 00:41:49;;;;;;;4.80;3.47;;;;;;;;;;5114498;28;20203;-77
2023/04/20 00:44:16;;;;;;;3.90;3.17;;;;;;;;;;5114354;28;20227;-77
2023/04/20 00:46:42;;;;;;;6.10;3.40;;;;;;;;;;5114379;28;20207;-77
2023/04/20 00:49:09;;;;;;;4.20;3.80;;;;;;;;;;5114228;28;20230;-77
2023/04/20 00:51:35;;;;;;;4.57;3.57;;;;;;;;;;5114044;28;20670;-77
2023/04/20 00:54:03;;;;;;;5.47;4.00;;;;;;;;;;5113937;28;20702;-77
2023/04/20 00:56:30;;;;;;;4.00;3.57;;;;;;;;;;5114259;28;20206;-77
2023/04/20 00:58:56;;;;;;;4.67;3.43;;;;;;;;;;5114188;28;20195;-77
2023/04/20 01:01:22;;;;;;;7.07;3.10;;;;;;;;;;5114173;28;20213;-77
2023/04/20 01:03:48;;;;;;;5.10;3.53;;;;;;;;;;5113763;28;20233;-77
2023/04/20 01:06:15;;;;;;;4.07;3.63;;;;;;;;;;5113675;28;20689;-77
2023/04/20 01:08:51;;;;;;;6.00;3.03;;;;;;;;;;5114046;28;20227;-77
2023/04/20 01:11:17;;;;;;;7.27;3.33;;;;;;;;;;5114096;28;20209;-77
2023/04/20 01:13:43;;;;;;;4.67;3.87;;;;;;;;;;5114014;28;20272;-77
2023/04/20 01:16:11;;;;;;;4.07;3.50;;;;;;;;;;5114027;28;20199;-77
2023/04/20 01:18:47;;;;;;;4.83;3.70;;;;;;;;;;5113718;28;20267;-77
2023/04/20 01:21:15;;;;;;;6.13;3.63;;;;;;;;;;5116326;28;20187;-77
2023/04/20 01:23:41;;;;;;;3.40;3.10;;;;;;;;;;5118227;28;20231;-77
2023/04/20 01:26:08;;;;;;;3.83;3.10;;;;;;;;;;5118185;28;20199;-77
2023/04/20 01:28:34;;;;;;;5.40;3.73;;;;;;;;;;5118067;28;20209;-77
2023/04/20 01:31:02;;;;;;;6.13;3.40;;;;;;;;;;5118123;28;20199;-77
2023/04/20 01:33:28;;;;;;;4.07;3.00;;;;;;;;;;5118032;28;20225;-77
2023/04/20 01:35:54;;;;;;;4.90;3.53;;;;;;;;;;5117686;28;20203;-77
2023/04/20 01:38:21;;;;;;;5.43;3.10;;;;;;;;;;5117926;28;20199;-77
2023/04/20 01:40:48;;;;;;;3.30;3.00;;;;;;;;;;5117664;28;20658;-77
2023/04/20 01:43:15;;;;;;;4.00;3.30;;;;;;;;;;5118015;28;20587;-77
2023/04/20 01:45:41;;;;;;;4.00;3.10;;;;;;;;;;5117838;28;20230;-77
2023/04/20 01:48:07;;;;;;;4.50;3.37;;;;;;;;;;5117789;28;20202;-77
2023/04/20 01:50:34;;;;;;;5.40;3.53;;;;;;;;;;5117667;28;20223;-77
2023/04/20 01:53:00;;;;;;;4.20;3.13;;;;;;;;;;5117513;28;20226;-77
2023/04/20 01:55:26;;;;;;;5.90;3.27;;;;;;;;;;5117678;28;20207;-77
2023/04/20 01:57:52;;;;;;;4.93;3.63;;;;;;;;;;5117601;28;20211;-77
2023/04/20 02:00:19;;;;;;;4.60;3.03;;;;;;;;;;5117295;28;20204;-77
2023/04/20 02:02:45;;;;;;;4.40;3.20;;;;;;;;;;5117171;28;20223;-77
2023/04/20 02:05:11;;;;;;;4.47;3.03;;;;;;;;;;5117447;28;20207;-77
2023/04/20 02:07:37;;;;;;;6.13;3.20;;;;;;;;;;5117387;28;20209;-77
2023/04/20 02:10:05;;;;;;;4.37;3.30;;;;;;;;;;5117329;28;20227;-77
2023/04/20 02:12:31;;;;;;;3.97;3.10;;;;;;;;;;5117016;28;20231;-77
2023/04/20 02:14:57;;;;;;;3.23;2.93;;;;;;;;;;5116915;28;20213;-77
2023/04/20 02:17:24;;;;;;;4.50;3.20;;;;;;;;;;5117016;28;20207;-77
2023/04/20 02:19:50;;;;;;;4.77;3.00;;;;;;;;;;5116871;28;20184;-77
2023/04/20 02:22:16;;;;;;;4.87;3.10;;;;;;;;;;5116640;28;20219;-77
2023/04/20 02:24:43;;;;;;;4.40;3.03;;;;;;;;;;5117120;28;20199;-77
2023/04/20 02:27:09;;;;;;;4.47;3.07;;;;;;;;;;5116748;28;20207;-77
2023/04/20 02:29:36;;;;;;;5.33;3.50;;;;;;;;;;5116648;28;20712;-77
2023/04/20 02:32:02;;;;;;;4.10;3.27;;;;;;;;;;5116035;28;20238;-77
2023/04/20 02:34:28;;;;;;;3.57;3.27;;;;;;;;;;5116918;28;20544;-77
2023/04/20 02:36:55;;;;;;;4.23;3.77;;;;;;;;;;5116820;28;20207;-77
2023/04/20 02:39:21;;;;;;;4.13;3.37;;;;;;;;;;5116809;28;20221;-77
2023/04/20 02:41:47;;;;;;;3.97;3.23;;;;;;;;;;5116754;28;20203;-77
2023/04/20 02:44:13;;;;;;;4.87;3.40;;;;;;;;;;5116623;28;20229;-77
2023/04/20 02:46:40;;;;;;;4.33;3.70;;;;;;;;;;5116578;28;20203;-77
2023/04/20 02:49:06;;;;;;;4.27;3.23;;;;;;;;;;5116556;28;20326;-77
2023/04/20 02:51:33;;;;;;;3.47;3.17;;;;;;;;;;5116340;28;20207;-77
2023/04/20 02:53:59;;;;;;;3.77;3.37;;;;;;;;;;5116022;28;20702;-77
2023/04/20 02:56:25;;;;;;;4.47;3.40;;;;;;;;;;5116092;28;20574;-77
2023/04/20 02:58:52;;;;;;;4.67;3.47;;;;;;;;;;5116381;28;20207;-77
2023/04/20 03:01:18;;;;;;;4.80;3.10;;;;;;;;;;5116348;28;20222;-77
2023/04/20 03:03:44;;;;;;;4.83;3.40;;;;;;;;;;5115832;28;20309;-77
2023/04/20 03:06:10;;;;;;;4.27;3.70;;;;;;;;;;5115782;28;20211;-77
2023/04/20 03:08:37;;;;;;;4.07;3.43;;;;;;;;;;5115769;28;20658;-77
2023/04/20 03:11:03;;;;;;;3.90;3.50;;;;;;;;;;5115690;28;20579;-77
2023/04/20 03:13:29;;;;;;;4.07;3.63;;;;;;;;;;5115925;28;20259;-77
2023/04/20 03:15:55;;;;;;;4.10;3.70;;;;;;;;;;5115983;28;20199;-77
2023/04/20 03:18:22;;;;;;;5.40;4.27;;;;;;;;;;5115683;28;20214;-77
2023/04/20 03:20:48;;;;;;;6.03;4.17;;;;;;;;;;5115775;28;20202;-77
2023/04/20 03:23:14;;;;;;;4.37;3.87;;;;;;;;;;5115583;28;20227;-77
2023/04/20 03:25:41;;;;;;;4.37;3.80;;;;;;;;;;5115366;28;20239;-77
2023/04/20 03:28:07;;;;;;;3.97;3.57;;;;;;;;;;5115414;28;20230;-77
2023/04/20 03:30:34;;;;;;;4.87;4.17;;;;;;;;;;5115299;28;20686;-77
2023/04/20 03:33:00;;;;;;;4.47;3.77;;;;;;;;;;5115480;28;20223;-77
2023/04/20 03:35:26;;;;;;;5.63;4.20;;;;;;;;;;5115670;28;20199;-77
2023/04/20 03:37:53;;;;;;;4.77;4.27;;;;;;;;;;5115394;28;20214;-77
2023/04/20 03:40:19;;;;;;;7.90;4.67;;;;;;;;;;5115420;28;20206;-77
2023/04/20 03:42:45;;;;;;;5.77;4.17;;;;;;;;;;5115790;28;20281;-77
2023/04/20 03:45:12;;;;;;;6.33;4.10;;;;;;;;;;5114235;28;20206;-77
2023/04/20 03:47:38;;;;;;;7.40;4.57;;;;;;;;;;5115331;28;20207;-77
2023/04/20 03:50:05;;;;;;;7.37;4.80;;;;;;;;;;5115161;28;20227;-77
2023/04/20 03:52:31;;;;;;;4.50;3.87;;;;;;;;;;5114933;28;20705;-76
2023/04/20 03:54:57;;;;;;;4.60;4.17;;;;;;;;;;5115256;28;20581;-76
2023/04/20 03:57:23;;;;;;;8.50;4.47;;;;;;;;;;5115163;28;20541;-77
2023/04/20 03:59:50;;;;;;;6.23;3.63;;;;;;;;;;5114940;28;20203;-76
2023/04/20 04:02:17;;;;;;;4.27;3.87;;;;;;;;;;5114677;28;20226;-77
2023/04/20 04:04:44;;;;;;;6.53;4.13;;;;;;;;;;5114807;28;20284;-77
2023/04/20 04:07:10;;;;;;;4.87;4.10;;;;;;;;;;5114138;28;20658;-77
2023/04/20 04:09:36;;;;;;;4.87;4.20;;;;;;;;;;5114777;28;20229;-77
2023/04/20 04:12:03;;;;;;;5.47;4.23;;;;;;;;;;5114860;28;20221;-76
2023/04/20 04:14:29;;;;;;;6.63;4.53;;;;;;;;;;5114716;28;20208;-77
2023/04/20 04:16:56;;;;;;;5.63;4.30;;;;;;;;;;5115065;28;20550;-77
2023/04/20 04:19:22;;;;;;;5.23;4.27;;;;;;;;;;5114281;28;20581;-77
2023/04/20 04:21:48;;;;;;;4.77;4.27;;;;;;;;;;5114410;28;20221;-77
2023/04/20 04:24:16;;;;;;;7.17;3.93;;;;;;;;;;5114435;28;20347;-77
2023/04/20 04:26:42;;;;;;;6.63;4.73;;;;;;;;;;5114521;28;20214;-77
2023/04/20 04:29:09;;;;;;;5.93;4.40;;;;;;;;;;5114034;28;20212;-77
2023/04/20 04:31:35;;;;;;;6.00;4.37;;;;;;;;;;5114376;28;20209;-77
2023/04/20 04:34:02;;;;;;;7.17;4.10;;;;;;;;;;5113988;28;20219;-77
2023/04/20 04:36:28;;;;;;;5.13;4.50;;;;;;;;;;5113954;28;20211;-77
2023/04/20 04:38:55;;;;;;;5.23;4.23;;;;;;;;;;5114377;28;20218;-77
2023/04/20 04:41:22;;;;;;;6.47;4.70;;;;;;;;;;5113467;28;20725;-78
2023/04/20 04:43:48;;;;;;;5.13;4.57;;;;;;;;;;5113712;28;20610;-77
2023/04/20 04:46:14;;;;;;;5.30;4.80;;;;;;;;;;5113955;28;20203;-77
2023/04/20 04:48:42;;;;;;;5.93;4.80;;;;;;;;;;5113811;28;20199;-77
2023/04/20 04:51:08;;;;;;;5.93;5.07;;;;;;;;;;5113871;28;20234;-78
2023/04/20 04:53:35;;;;;;;6.30;5.70;;;;;;;;;;5113943;28;20230;-77
2023/04/20 04:56:02;;;;;;;7.27;5.10;;;;;;;;;;5113742;28;20210;-77
2023/04/20 04:58:28;;;;;;;8.43;5.17;;;;;;;;;;5113795;28;20203;-77
2023/04/20 05:00:54;;;;;;;8.77;5.43;;;;;;;;;;5113922;28;20195;-77
2023/04/20 05:03:20;;;;;;;6.70;4.93;;;;;;;;;;5113641;28;20219;-77
2023/04/20 05:05:47;;;;;;;6.67;5.07;;;;;;;;;;5113396;28;20207;-77
2023/04/20 05:08:13;;;;;;;6.60;5.70;;;;;;;;;;5113622;28;20293;-77
2023/04/20 05:10:39;;;;;;;10.03;5.77;;;;;;;;;;5113767;28;20226;-77
2023/04/20 05:13:05;;;;;;;8.90;5.67;;;;;;;;;;5113629;28;20229;-77
2023/04/20 05:15:32;;;;;;;6.77;5.27;;;;;;;;;;5113385;28;20218;-77
2023/04/20 05:17:58;;;;;;;7.57;5.27;;;;;;;;;;5113331;28;20244;-77
2023/04/20 05:20:24;;;;;;;8.27;5.30;;;;;;;;;;5113436;28;20207;-77
2023/04/20 05:22:51;;;;;;;7.00;5.47;;;;;;;;;;5112184;28;20715;-77
2023/04/20 05:25:18;;;;;;;9.93;5.40;;;;;;;;;;5112805;28;20666;-77
2023/04/20 05:27:45;;;;;;;6.70;5.07;;;;;;;;;;5113077;28;20689;-77
2023/04/20 05:30:11;;;;;;;6.10;4.97;;;;;;;;;;5113573;28;20227;-77
2023/04/20 05:32:37;;;;;;;6.43;4.93;;;;;;;;;;5113576;28;20223;-77
2023/04/20 05:35:04;;;;;;;5.97;5.07;;;;;;;;;;5113152;28;20210;-77
2023/04/20 05:37:30;;;;;;;7.27;5.10;;;;;;;;;;5113368;28;20207;-77
2023/04/20 05:39:56;;;;;;;5.67;5.00;;;;;;;;;;5113081;28;20195;-77
2023/04/20 05:42:22;;;;;;;7.03;5.67;;;;;;;;;;5113173;28;20227;-77
2023/04/20 05:44:49;;;;;;;7.07;5.70;;;;;;;;;;5113264;28;20214;-76
2023/04/20 05:47:15;;;;;;;5.77;4.83;;;;;;;;;;5113399;28;20208;-77
2023/04/20 05:49:41;;;;;;;8.00;4.90;;;;;;;;;;5113418;28;20203;-77
2023/04/20 05:52:08;;;;;;;9.47;5.33;;;;;;;;;;5112735;28;20211;-77
2023/04/20 05:54:34;;;;;;;8.27;5.23;;;;;;;;;;5112982;28;20669;-77
2023/04/20 05:57:00;;;;;;;9.83;5.67;;;;;;;;;;5112888;28;20662;-77
2023/04/20 05:59:26;;;;;;;9.47;5.50;;;;;;;;;;5112811;28;20681;-77
2023/04/20 06:01:53;;;;;;;8.00;5.30;;;;;;;;;;5112805;28;20231;-77
2023/04/20 06:04:19;;;;;;;10.30;5.43;;;;;;;;;;5112999;28;20717;-77
2023/04/20 06:06:45;;;;;;;7.93;6.00;;;;;;;;;;5113035;28;20237;-77
2023/04/20 06:09:11;;;;;;;8.47;6.37;;;;;;;;;;5116222;28;20203;-77
2023/04/20 06:11:38;;;;;;;11.67;5.10;;;;;;;;;;5116882;28;20226;-76
2023/04/20 06:14:04;;;;;;;7.27;4.90;;;;;;;;;;5116520;28;20279;-77
2023/04/20 06:16:30;;;;;;;6.47;4.80;;;;;;;;;;5116322;28;20207;-77
2023/04/20 06:18:57;;;;;;;5.77;4.43;;;;;;;;;;5116175;28;20211;-77
2023/04/20 06:21:26;;;;;;;5.77;4.90;;;;;;;;;;5116433;28;20200;-77
2023/04/20 06:23:52;;;;;;;7.93;5.37;;;;;;;;;;5115970;28;20814;-77
2023/04/20 06:26:18;;;;;;;6.57;5.30;;;;;;;;;;5116513;28;20207;-77
2023/04/20 06:28:46;;;;;;;6.87;4.90;;;;;;;;;;5116528;28;20203;-77
2023/04/20 06:31:12;;;;;;;8.10;5.37;;;;;;;;;;5109981;28;20255;-77
2023/04/20 06:33:39;;;;;;;6.20;5.00;;;;;;;;;;5115951;28;20728;-72
2023/04/20 06:36:08;;;;;;;6.00;5.07;;;;;;;;;;5116397;28;20261;-72
2023/04/20 06:38:35;;;;;;;6.13;5.10;;;;;;;;;;5106074;28;20207;-76
2023/04/20 06:41:05;;;;;;;9.60;5.60;;;;;;;;;;5095985;28;20245;-76
2023/04/20 06:43:31;;;;;;;5.70;5.10;;;;;;;;;;5095860;28;20254;-73
2023/04/20 06:45:57;;;;;;;6.77;5.30;;;;;;;;;;5095887;28;20208;-74
2023/04/20 06:48:24;;;;;;;9.10;5.60;;;;;;;;;;5095769;28;20683;-74
2023/04/20 06:50:50;;;;;;;7.13;5.63;;;;;;;;;;5095789;28;20270;-73
2023/04/20 06:53:17;;;;;;;7.23;5.67;;;;;;;;;;5095413;28;20319;-72
2023/04/20 06:55:43;;;;;;;6.90;5.63;;;;;;;;;;5095669;28;20208;-73
2023/04/20 06:58:10;;;;;;;8.90;5.80;;;;;;;;;;5095254;28;20241;-73
2023/04/20 07:00:36;;;;;;;6.63;5.87;;;;;;;;;;5095460;28;20206;-73
2023/04/20 07:03:04;;;;;;;5.67;5.03;;;;;;;;;;5095118;28;20307;-72
2023/04/20 07:05:30;;;;;;;6.20;5.37;;;;;;;;;;5095588;28;20253;-72
2023/04/20 07:07:57;;;;;;;8.20;5.80;;;;;;;;;;5095461;28;20200;-73
2023/04/20 07:10:35;;;;;;;7.40;5.27;;;;;;;;;;5095113;28;20410;-73
2023/04/20 07:13:01;;;;;;;5.43;4.93;;;;;;;;;;5095384;28;20588;-72
2023/04/20 07:15:28;;;;;;;7.63;5.67;;;;;;;;;;5093784;28;20315;-72
2023/04/20 07:17:56;;;;;;;6.97;5.00;;;;;;;;;;5095074;28;20617;-72
2023/04/20 07:20:22;;;;;;;6.70;5.77;;;;;;;;;;5094978;28;20257;-72
2023/04/20 07:22:49;;;;;;;7.93;5.83;;;;;;;;;;5094994;28;20226;-72
2023/04/20 07:25:16;;;;;;;8.23;5.83;;;;;;;;;;5095168;28;20577;-72
2023/04/20 07:27:45;;;;;;;8.67;5.87;;;;;;;;;;5095006;28;20208;-73
2023/04/20 07:30:16;;;;;;;6.33;5.40;;;;;;;;;;5094648;28;20207;-72
2023/04/20 07:35:24;;;;;;;7.53;5.83;;;;;;;;;;5106762;28;20724;-73
2023/04/20 07:37:53;;;;;;;7.80;6.03;;;;;;;;;;5115082;28;20276;-73
2023/04/20 07:40:20;;;;;;;9.37;5.67;;;;;;;;;;5115325;28;20195;-73
2023/04/20 07:42:46;;;;;;;8.23;5.93;;;;;;;;;;5115448;28;20229;-73
2023/04/20 07:50:58;;;;;;;7.20;5.67;;;;;;;;;;5063303;28;20742;-73
2023/04/20 07:53:29;;;;;;;6.50;5.40;;;;;;;;;;5114784;28;20230;-73
2023/04/20 07:56:04;;;;;;;7.00;5.47;;;;;;;;;;5114784;28;20274;-73
2023/04/20 08:07:03;;;;;;;8.03;6.07;;;;;;;;;;5112578;27;20214;-74
2023/04/20 08:09:42;;;;;;;7.00;5.73;;;;;;;;;;5114766;28;20187;-74
2023/04/20 08:14:50;;;;;;;7.03;6.03;;;;;;;;;;5052272;28;20256;-71
2023/04/20 08:17:34;;;;;;;7.13;5.73;;;;;;;;;;5053073;28;20216;-72
2023/04/20 08:20:01;;;;;;;7.13;6.23;;;;;;;;;;5053916;28;20197;-71
2023/04/20 08:22:28;;;;;;;8.20;6.10;;;;;;;;;;5057374;28;20228;-71
2023/04/20 08:24:58;;;;;;;7.33;6.43;;;;;;;;;;5073683;28;20208;-71
2023/04/20 08:27:25;;;;;;;6.53;5.93;;;;;;;;;;5073647;28;20204;-71
2023/04/20 08:29:51;;;;;;;7.00;6.30;;;;;;;;;;5073230;28;20287;-72
2023/04/20 08:32:44;;;;;;;9.93;6.13;;;;;;;;;;5073322;28;20232;-72
2023/04/20 08:35:11;;;;;;;8.20;6.63;;;;;;;;;;5073518;28;20224;-72
2023/04/20 08:37:43;;;;;;;7.40;6.00;;;;;;;;;;5073398;28;20728;-71
2023/04/20 08:40:18;;;;;;;7.10;6.40;;;;;;;;;;5073584;28;20555;-71
2023/04/20 08:42:58;;;;;;;7.07;6.10;;;;;;;;;;5073317;28;20224;-72
2023/04/20 08:45:39;;;;;;;7.13;6.07;;;;;;;;;;5073840;28;20543;-72
2023/04/20 08:48:16;;;;;;;7.13;6.43;;;;;;;;;;5073593;28;20333;-72
2023/04/20 08:50:43;;;;;;;9.80;6.80;;;;;;;;;;5073044;28;20756;-72
2023/04/20 08:53:21;;;;;;;9.40;6.43;;;;;;;;;;5072886;28;20229;-72
2023/04/20 09:02:04;;;;;;;7.33;6.63;;;;;;;;;;5061451;28;20291;-71
2023/04/20 09:05:07;;;;;;;7.13;6.50;;;;;;;;;;5072492;28;20235;-72
2023/04/20 09:07:35;;;;;;;8.83;6.60;;;;;;;;;;5054202;28;20205;-73
2023/04/20 09:10:01;;;;;;;8.50;6.27;;;;;;;;;;5073297;28;20582;-72
2023/04/20 09:12:28;;;;;;;7.20;6.50;;;;;;;;;;5072960;28;20235;-72
2023/04/20 09:14:54;;;;;;;7.20;6.27;;;;;;;;;;5073189;28;20215;-72
2023/04/20 09:17:31;;;;;;;7.63;6.10;;;;;;;;;;5072540;28;20216;-72
2023/04/20 09:19:57;;;;;;;7.07;6.20;;;;;;;;;;5072821;28;20206;-72
2023/04/20 09:22:30;;;;;;;7.10;6.40;;;;;;;;;;5072836;28;20223;-72
2023/04/20 09:24:56;;;;;;;7.73;6.33;;;;;;;;;;5072798;28;20667;-72
2023/04/20 09:27:25;;;;;;;6.03;5.47;;;;;;;;;;5072845;28;20211;-72
2023/04/20 09:29:57;;;;;;;7.97;6.13;;;;;;;;;;5072905;28;20208;-73
2023/04/20 09:32:24;;;;;;;7.47;6.30;;;;;;;;;;5072804;28;20235;-72
2023/04/20 09:34:50;;;;;;;6.77;5.93;;;;;;;;;;5072590;28;20778;-72
2023/04/20 09:37:17;;;;;;;7.00;6.30;;;;;;;;;;5073000;28;20219;-72
2023/04/20 09:39:44;;;;;;;7.40;6.33;;;;;;;;;;5073252;28;20205;-74
2023/04/20 09:42:12;;;;;;;8.13;6.13;;;;;;;;;;5073268;28;20204;-73
2023/04/20 09:44:39;;;;;;;7.67;6.20;;;;;;;;;;5077283;28;20209;-72
2023/04/20 09:47:06;;;;;;;6.63;5.70;;;;;;;;;;5076833;28;20201;-73
2023/04/20 09:49:32;;;;;;;6.70;6.00;;;;;;;;;;5076715;28;20211;-72
2023/04/20 09:52:02;;;;;;;6.80;6.10;;;;;;;;;;5076515;28;20220;-71
2023/04/20 09:54:29;;;;;;;6.37;5.77;;;;;;;;;;5076682;28;20214;-72
2023/04/20 09:56:57;;;;;;;8.03;6.10;;;;;;;;;;5076597;28;20211;-72
2023/04/20 09:59:23;;;;;;;6.63;5.80;;;;;;;;;;5076577;28;20255;-72
2023/04/20 10:01:50;;;;;;;7.37;5.87;;;;;;;;;;5076672;28;20274;-72
2023/04/20 10:04:16;;;;;;;7.53;6.20;;;;;;;;;;5076510;28;20256;-72
2023/04/20 10:07:01;;;;;;;7.30;5.73;;;;;;;;;;5076195;28;20244;-71
2023/04/20 10:09:29;;;;;;;6.73;6.10;;;;;;;;;;5076701;28;20197;-72
2023/04/20 10:12:05;;;;;;;7.60;6.07;;;;;;;;;;5075930;28;20224;-71
2023/04/20 10:14:31;;;;;;;6.67;6.03;;;;;;;;;;5076669;28;20212;-71
2023/04/20 10:16:59;;;;;;;7.90;6.20;;;;;;;;;;5076375;28;20663;-71
2023/04/20 10:19:36;;;;;;;7.73;6.17;;;;;;;;;;5075803;28;20216;-71
2023/04/20 10:22:02;;;;;;;7.80;5.97;;;;;;;;;;5075647;28;20185;-71
2023/04/20 10:24:29;;;;;;;9.17;6.20;;;;;;;;;;5075120;28;20210;-71
2023/04/20 10:26:55;;;;;;;7.10;6.27;;;;;;;;;;5075894;28;20235;-71
2023/04/20 10:29:25;;;;;;;7.83;6.47;;;;;;;;;;5075688;28;20211;-71
2023/04/20 10:31:52;;;;;;;7.57;5.60;;;;;;;;;;5075917;28;20228;-71
2023/04/20 10:34:29;;;;;;;7.77;6.40;;;;;;;;;;5075925;28;20229;-71
2023/04/20 10:36:55;;;;;;;7.00;6.30;;;;;;;;;;5075853;28;20189;-71
2023/04/20 10:39:21;;;;;;;8.23;6.60;;;;;;;;;;5075830;28;20211;-71
2023/04/20 10:41:54;;;;;;;9.60;6.80;;;;;;;;;;5075703;28;20199;-75
2023/04/20 10:44:21;;;;;;;9.10;6.20;;;;;;;;;;5075370;28;20235;-75
2023/04/20 10:46:50;;;;;;;9.03;6.60;;;;;;;;;;5075391;28;20201;-76
2023/04/20 10:49:17;;;;;;;7.60;6.87;;;;;;;;;;5075908;28;20307;-76
2023/04/20 10:51:49;;;;;;;8.47;7.30;;;;;;;;;;5075307;28;20256;-75
2023/04/20 10:54:16;;;;;;;7.30;6.50;;;;;;;;;;5074922;28;20707;-76
2023/04/20 10:56:43;;;;;;;7.47;6.60;;;;;;;;;;5075637;28;20211;-77
2023/04/20 10:59:11;;;;;;;8.17;7.30;;;;;;;;;;5075232;28;20580;-77
2023/04/20 11:01:38;;;;;;;8.07;7.27;;;;;;;;;;5075346;28;20207;-75
2023/04/20 11:04:04;;;;;;;7.37;6.23;;;;;;;;;;5074891;28;20224;-75
2023/04/20 11:06:31;;;;;;;7.10;6.50;;;;;;;;;;5075706;28;20208;-76
2023/04/20 11:08:57;;;;;;;6.90;6.20;;;;;;;;;;5075691;28;20201;-76
2023/04/20 11:11:26;;;;;;;7.10;6.40;;;;;;;;;;5075254;28;20224;-76
2023/04/20 11:13:53;;;;;;;8.00;7.00;;;;;;;;;;5074792;28;20248;-75
2023/04/20 11:16:19;;;;;;;7.07;6.47;;;;;;;;;;5075140;28;20204;-75
2023/04/20 11:18:55;;;;;;;8.33;7.10;;;;;;;;;;5075121;28;20204;-75
2023/04/20 11:21:22;;;;;;;7.57;6.43;;;;;;;;;;5075484;28;20207;-75
2023/04/20 11:23:49;;;;;;;7.90;7.20;;;;;;;;;;5075077;28;20224;-75
2023/04/20 11:26:15;;;;;;;7.27;6.57;;;;;;;;;;5075117;28;20207;-75
2023/04/20 11:28:52;;;;;;;7.70;7.00;;;;;;;;;;5075119;28;20208;-75
2023/04/20 11:31:19;;;;;;;7.97;7.17;;;;;;;;;;5074184;28;20220;-75
2023/04/20 11:33:45;;;;;;;7.13;6.23;;;;;;;;;;5074579;28;20224;-75
2023/04/20 11:36:21;;;;;;;7.83;6.67;;;;;;;;;;5074523;28;20208;-75
2023/04/20 11:38:48;;;;;;;7.33;6.63;;;;;;;;;;5074568;28;20254;-75
2023/04/20 11:41:14;;;;;;;6.80;6.20;;;;;;;;;;5074405;28;20589;-75
2023/04/20 11:43:42;;;;;;;7.20;6.47;;;;;;;;;;5074445;28;20246;-75
2023/04/20 11:46:35;;;;;;;7.80;7.10;;;;;;;;;;5074063;28;20668;-74
2023/04/20 11:49:03;;;;;;;7.13;6.43;;;;;;;;;;5071785;28;20209;-76
2023/04/20 11:51:30;;;;;;;8.50;7.40;;;;;;;;;;5073881;28;20220;-75
2023/04/20 11:53:56;;;;;;;8.07;7.30;;;;;;;;;;5073996;28;20256;-74
2023/04/20 11:56:22;;;;;;;10.43;7.87;;;;;;;;;;5074638;28;20209;-75
2023/04/20 11:58:49;;;;;;;8.63;7.83;;;;;;;;;;5073969;28;20270;-75
2023/04/20 12:01:17;;;;;;;8.53;7.73;;;;;;;;;;5074042;28;20284;-75
2023/04/20 12:03:43;;;;;;;10.43;7.57;;;;;;;;;;5074062;28;20315;-75
2023/04/20 12:06:09;;;;;;;8.73;7.93;;;;;;;;;;5073468;28;20208;-75
2023/04/20 12:08:36;;;;;;;8.17;7.47;;;;;;;;;;5074050;28;20258;-75
2023/04/20 12:11:02;;;;;;;8.10;7.30;;;;;;;;;;5073832;28;20209;-77
2023/04/20 12:13:28;;;;;;;7.78;7.13;;;;;;;;;;5073334;28;20412;-76
2023/04/20 12:15:55;;;;;;;8.80;7.90;;;;;;;;;;5073813;28;20220;-76
2023/04/20 12:18:22;;;;;;;8.23;7.43;;;;;;;;;;5074470;28;20208;-75
2023/04/20 12:20:49;;;;;;;8.37;6.83;;;;;;;;;;5073404;28;20201;-77
2023/04/20 12:23:15;;;;;;;8.10;7.30;;;;;;;;;;5073637;28;20222;-76
2023/04/20 12:25:42;;;;;;;8.47;7.37;;;;;;;;;;5073836;28;20208;-77
2023/04/20 12:28:08;;;;;;;8.27;7.00;;;;;;;;;;5074098;28;20216;-73
2023/04/20 12:30:35;;;;;;;7.37;6.77;;;;;;;;;;5073353;28;20208;-76
2023/04/20 12:33:02;;;;;;;7.37;6.70;;;;;;;;;;5073041;28;20236;-76
2023/04/20 12:35:28;;;;;;;7.73;6.60;;;;;;;;;;5074103;28;20297;-76
2023/04/20 12:37:55;;;;;;;6.80;6.17;;;;;;;;;;5073711;28;20223;-76
2023/04/20 12:40:22;;;;;;;7.57;6.77;;;;;;;;;;5073577;28;20205;-77
2023/04/20 12:42:48;;;;;;;7.50;6.10;;;;;;;;;;5073018;28;20221;-77
2023/04/20 12:45:14;;;;;;;14.37;12.63;;;;;;;;;;5073144;28;20274;-79
2023/04/20 12:47:41;;;;;;;9.03;7.93;;;;;;;;;;5074155;28;20208;-79
2023/04/20 12:50:07;;;;;;;37.67;31.13;;;;;;;;;;5073997;28;20311;-76
2023/04/20 12:52:33;;;;;;;9.87;8.87;;;;;;;;;;5072871;28;20236;-77
2023/04/20 12:55:00;;;;;;;7.73;6.97;;;;;;;;;;5073141;28;20220;-77
2023/04/20 12:57:26;;;;;;;7.97;7.17;;;;;;;;;;5072974;28;20629;-77
2023/04/20 12:59:53;;;;;;;7.50;6.80;;;;;;;;;;5073055;28;20376;-76
2023/04/20 13:02:19;;;;;;;7.73;6.93;;;;;;;;;;5073269;28;20200;-75
2023/04/20 13:04:46;;;;;;;6.47;5.87;;;;;;;;;;5073122;28;20691;-76
2023/04/20 13:07:12;;;;;;;9.27;8.20;;;;;;;;;;5073280;28;20204;-76
2023/04/20 13:09:39;;;;;;;7.20;6.60;;;;;;;;;;5073181;28;20208;-78
2023/04/20 13:12:05;;;;;;;6.57;5.97;;;;;;;;;;5072904;28;20220;-75
2023/04/20 13:14:31;;;;;;;7.87;5.87;;;;;;;;;;5072800;28;20220;-76
2023/04/20 13:17:00;;;;;;;6.43;5.83;;;;;;;;;;5073337;28;20211;-75
2023/04/20 13:19:26;;;;;;;5.53;5.03;;;;;;;;;;5073052;28;20288;-76
2023/04/20 13:21:52;;;;;;;6.53;5.83;;;;;;;;;;5072825;28;20203;-76
2023/04/20 13:24:19;;;;;;;6.97;4.90;;;;;;;;;;5072881;28;20247;-75
2023/04/20 13:26:45;;;;;;;5.60;5.10;;;;;;;;;;5072847;28;20205;-76
2023/04/20 13:29:12;;;;;;;7.10;5.43;;;;;;;;;;5072801;28;20205;-75
2023/04/20 13:31:39;;;;;;;5.43;4.93;;;;;;;;;;5072557;28;20631;-76
2023/04/20 13:34:05;;;;;;;5.80;5.17;;;;;;;;;;5072789;28;20247;-76
2023/04/20 13:36:32;;;;;;;9.10;6.00;;;;;;;;;;5072789;28;20204;-76
2023/04/20 13:38:58;;;;;;;5.87;5.30;;;;;;;;;;5073607;28;20212;-75
2023/04/20 13:41:24;;;;;;;7.27;6.00;;;;;;;;;;5072461;28;20678;-76
2023/04/20 13:43:51;;;;;;;6.67;5.90;;;;;;;;;;5072122;28;20594;-76
2023/04/20 13:46:18;;;;;;;7.97;5.83;;;;;;;;;;5072021;28;20201;-75
2023/04/20 13:48:44;;;;;;;6.23;5.63;;;;;;;;;;5072042;28;20231;-76
2023/04/20 13:51:11;;;;;;;6.87;6.17;;;;;;;;;;5072742;28;20228;-76
2023/04/20 13:53:37;;;;;;;7.87;6.43;;;;;;;;;;5072378;28;20311;-75
2023/04/20 13:56:03;;;;;;;7.30;6.60;;;;;;;;;;5071851;28;20675;-77
2023/04/20 13:58:30;;;;;;;9.83;7.20;;;;;;;;;;5072161;28;20586;-76
2023/04/20 14:00:56;;;;;;;8.60;6.97;;;;;;;;;;5072413;28;20205;-76
2023/04/20 14:03:24;;;;;;;6.70;6.10;;;;;;;;;;5072127;28;20224;-78
2023/04/20 14:05:50;;;;;;;7.80;7.00;;;;;;;;;;5072719;28;20232;-77
2023/04/20 14:08:17;;;;;;;6.87;5.50;;;;;;;;;;5072407;28;20231;-76
2023/04/20 14:10:43;;;;;;;7.77;6.37;;;;;;;;;;5072505;28;20205;-75
2023/04/20 14:13:09;;;;;;;8.97;8.00;;;;;;;;;;5072125;28;20228;-75
2023/04/20 14:15:36;;;;;;;7.83;6.87;;;;;;;;;;5071459;28;20209;-77
2023/04/20 14:18:02;;;;;;;10.10;7.70;;;;;;;;;;5072283;28;20212;-76
2023/04/20 14:20:28;;;;;;;6.30;5.70;;;;;;;;;;5072399;28;20201;-75
2023/04/20 14:22:54;;;;;;;7.33;6.50;;;;;;;;;;5072425;28;20228;-76
2023/04/20 14:25:21;;;;;;;7.20;6.50;;;;;;;;;;5072135;28;20686;-76
2023/04/20 14:27:47;;;;;;;9.20;6.03;;;;;;;;;;5072366;28;20220;-75
2023/04/20 14:30:14;;;;;;;5.90;5.40;;;;;;;;;;5075546;28;20747;-76
2023/04/20 14:32:41;;;;;;;6.20;5.60;;;;;;;;;;5075458;28;20681;-76
2023/04/20 14:35:08;;;;;;;6.50;5.90;;;;;;;;;;5075743;28;20204;-76
2023/04/20 14:37:34;;;;;;;5.77;5.17;;;;;;;;;;5076325;28;20208;-75
2023/04/20 14:40:00;;;;;;;6.40;5.70;;;;;;;;;;5075889;28;20201;-75
2023/04/20 14:42:26;;;;;;;6.80;6.20;;;;;;;;;;5075515;28;20223;-75
2023/04/20 14:44:53;;;;;;;6.40;5.80;;;;;;;;;;5075584;28;20212;-75
2023/04/20 14:47:19;;;;;;;6.87;6.20;;;;;;;;;;5076215;28;20204;-72
2023/04/20 14:49:45;;;;;;;5.40;4.90;;;;;;;;;;5075674;28;20211;-72
2023/04/20 14:52:12;;;;;;;6.40;5.80;;;;;;;;;;5075229;28;20224;-73
2023/04/20 14:54:38;;;;;;;5.97;5.40;;;;;;;;;;5075272;28;20208;-75
2023/04/20 14:57:04;;;;;;;5.60;5.20;;;;;;;;;;5075361;28;20211;-74
2023/04/20 14:59:30;;;;;;;5.33;4.83;;;;;;;;;;5075143;28;20209;-74
2023/04/20 15:01:57;;;;;;;4.83;4.43;;;;;;;;;;5074782;28;20663;-75
2023/04/20 15:04:23;;;;;;;5.97;5.47;;;;;;;;;;5074727;28;20229;-75
2023/04/20 15:06:49;;;;;;;6.33;5.73;;;;;;;;;;5075270;28;20573;-75
2023/04/20 15:09:15;;;;;;;5.93;5.43;;;;;;;;;;5074997;28;20204;-75